sensor_id;sensor_type;location;lat;lon;timestamp;P1;durP1;ratioP1;P2;durP2;ratioP2
18224;SDS011;9237;48.590;8.854;2023-04-06T00:00:26;1.00;;;1.00;;
18224;SDS011;9237;48.590;8.854;2023-04-06T00:02:53;1.00;;;1.00;;
18224;SDS011;9237;48.590;8.854;2023-04-06T00:05:21;1.00;;;1.00;;
18224;SDS011;9237;48.590;8.854;2023-04-06T00:07:49;1.00;;;1.00;;
18224;SDS011;9237;48.590;8.854;2023-04-06T00:10:16;1.10;;;1.10;;
18224;SDS011;9237;48.590;8.854;2023-04-06T00:12:43;1.00;;;1.00;;
18224;SDS011;9237;48.590;8.854;2023-04-06T00:15:11;0.90;;;0.90;;
18224;SDS011;9237;48.590;8.854;2023-04-06T00:17:37;1.10;;;1.10;;
18224;SDS011;9237;48.590;8.854;2023-04-06T00:20:05;1.00;;;1.00;;
18224;SDS011;9237;48.590;8.854;2023-04-06T00:22:34;1.03;;;1.03;;
18224;SDS011;9237;48.590;8.854;2023-04-06T00:25:01;1.00;;;1.00;;
18224;SDS011;9237;48.590;8.854;2023-04-06T00:27:28;1.00;;;1.00;;
18224;SDS011;9237;48.590;8.854;2023-04-06T00:29:56;1.10;;;1.10;;
18224;SDS011;9237;48.590;8.854;2023-04-06T00:32:22;0.97;;;0.97;;
18224;SDS011;9237;48.590;8.854;2023-04-06T00:34:49;1.00;;;1.00;;
18224;SDS011;9237;48.590;8.854;2023-04-06T00:37:16;1.10;;;1.10;;
18224;SDS011;9237;48.590;8.854;2023-04-06T00:39:45;1.10;;;1.10;;
18224;SDS011;9237;48.590;8.854;2023-04-06T00:42:12;1.10;;;1.10;;
18224;SDS011;9237;48.590;8.854;2023-04-06T00:44:39;1.00;;;1.00;;
18224;SDS011;9237;48.590;8.854;2023-04-06T00:47:07;1.00;;;1.00;;
18224;SDS011;9237;48.590;8.854;2023-04-06T00:49:34;0.90;;;0.90;;
18224;SDS011;9237;48.590;8.854;2023-04-06T00:52:01;1.00;;;1.00;;
18224;SDS011;9237;48.590;8.854;2023-04-06T00:54:28;1.00;;;1.00;;
18224;SDS011;9237;48.590;8.854;2023-04-06T00:56:57;1.00;;;1.00;;
18224;SDS011;9237;48.590;8.854;2023-04-06T00:59:24;1.10;;;1.10;;
18224;SDS011;9237;48.590;8.854;2023-04-06T01:01:52;1.00;;;1.00;;
18224;SDS011;9237;48.590;8.854;2023-04-06T01:04:19;0.90;;;0.90;;
18224;SDS011;9237;48.590;8.854;2023-04-06T01:06:47;1.00;;;1.00;;
18224;SDS011;9237;48.590;8.854;2023-04-06T01:09:14;1.10;;;1.10;;
18224;SDS011;9237;48.590;8.854;2023-04-06T01:11:41;1.00;;;1.00;;
18224;SDS011;9237;48.590;8.854;2023-04-06T01:14:10;1.00;;;1.00;;
18224;SDS011;9237;48.590;8.854;2023-04-06T01:16:37;1.00;;;1.00;;
18224;SDS011;9237;48.590;8.854;2023-04-06T01:19:07;0.90;;;0.90;;
18224;SDS011;9237;48.590;8.854;2023-04-06T01:21:34;1.00;;;1.00;;
18224;SDS011;9237;48.590;8.854;2023-04-06T01:24:03;1.00;;;1.00;;
18224;SDS011;9237;48.590;8.854;2023-04-06T01:26:31;1.00;;;1.00;;
18224;SDS011;9237;48.590;8.854;2023-04-06T01:28:58;1.00;;;1.00;;
18224;SDS011;9237;48.590;8.854;2023-04-06T01:31:25;1.10;;;1.10;;
18224;SDS011;9237;48.590;8.854;2023-04-06T01:33:52;0.97;;;0.97;;
18224;SDS011;9237;48.590;8.854;2023-04-06T01:36:20;1.00;;;1.00;;
18224;SDS011;9237;48.590;8.854;2023-04-06T01:38:47;0.90;;;0.90;;
18224;SDS011;9237;48.590;8.854;2023-04-06T01:41:15;0.90;;;0.90;;
18224;SDS011;9237;48.590;8.854;2023-04-06T01:43:44;1.00;;;1.00;;
18224;SDS011;9237;48.590;8.854;2023-04-06T01:46:11;0.90;;;0.90;;
18224;SDS011;9237;48.590;8.854;2023-04-06T01:48:38;0.97;;;0.97;;
18224;SDS011;9237;48.590;8.854;2023-04-06T01:51:05;0.93;;;0.93;;
18224;SDS011;9237;48.590;8.854;2023-04-06T01:53:32;0.90;;;0.90;;
18224;SDS011;9237;48.590;8.854;2023-04-06T01:55:58;0.93;;;0.93;;
18224;SDS011;9237;48.590;8.854;2023-04-06T01:58:27;1.10;;;1.10;;
18224;SDS011;9237;48.590;8.854;2023-04-06T02:00:54;0.90;;;0.90;;
18224;SDS011;9237;48.590;8.854;2023-04-06T02:03:21;1.00;;;1.00;;
18224;SDS011;9237;48.590;8.854;2023-04-06T02:05:48;1.10;;;1.10;;
18224;SDS011;9237;48.590;8.854;2023-04-06T02:08:15;0.97;;;0.97;;
18224;SDS011;9237;48.590;8.854;2023-04-06T02:10:41;1.00;;;1.00;;
18224;SDS011;9237;48.590;8.854;2023-04-06T02:13:08;1.03;;;1.03;;
18224;SDS011;9237;48.590;8.854;2023-04-06T02:15:37;1.00;;;1.00;;
18224;SDS011;9237;48.590;8.854;2023-04-06T02:18:04;0.90;;;0.90;;
18224;SDS011;9237;48.590;8.854;2023-04-06T02:20:31;1.00;;;1.00;;
18224;SDS011;9237;48.590;8.854;2023-04-06T02:22:58;0.83;;;0.83;;
18224;SDS011;9237;48.590;8.854;2023-04-06T02:25:25;1.03;;;1.03;;
18224;SDS011;9237;48.590;8.854;2023-04-06T02:27:52;1.00;;;1.00;;
18224;SDS011;9237;48.590;8.854;2023-04-06T02:30:20;0.90;;;0.90;;
18224;SDS011;9237;48.590;8.854;2023-04-06T02:32:48;1.00;;;1.00;;
18224;SDS011;9237;48.590;8.854;2023-04-06T02:35:15;1.00;;;1.00;;
18224;SDS011;9237;48.590;8.854;2023-04-06T02:37:41;0.90;;;0.90;;
18224;SDS011;9237;48.590;8.854;2023-04-06T02:40:09;0.93;;;0.93;;
18224;SDS011;9237;48.590;8.854;2023-04-06T02:42:36;0.97;;;0.97;;
18224;SDS011;9237;48.590;8.854;2023-04-06T02:45:03;1.20;;;1.20;;
18224;SDS011;9237;48.590;8.854;2023-04-06T02:47:31;1.10;;;1.10;;
18224;SDS011;9237;48.590;8.854;2023-04-06T02:50:00;1.10;;;1.10;;
18224;SDS011;9237;48.590;8.854;2023-04-06T02:52:26;0.90;;;0.90;;
18224;SDS011;9237;48.590;8.854;2023-04-06T02:54:53;1.30;;;1.30;;
18224;SDS011;9237;48.590;8.854;2023-04-06T02:57:20;0.90;;;0.90;;
18224;SDS011;9237;48.590;8.854;2023-04-06T02:59:47;0.93;;;0.93;;
18224;SDS011;9237;48.590;8.854;2023-04-06T03:02:14;0.70;;;0.70;;
18224;SDS011;9237;48.590;8.854;2023-04-06T03:04:41;0.97;;;0.97;;
18224;SDS011;9237;48.590;8.854;2023-04-06T03:07:10;1.30;;;1.30;;
18224;SDS011;9237;48.590;8.854;2023-04-06T03:09:37;1.10;;;1.10;;
18224;SDS011;9237;48.590;8.854;2023-04-06T03:12:04;0.97;;;0.97;;
18224;SDS011;9237;48.590;8.854;2023-04-06T03:14:31;1.00;;;1.00;;
18224;SDS011;9237;48.590;8.854;2023-04-06T03:16:58;1.03;;;1.03;;
18224;SDS011;9237;48.590;8.854;2023-04-06T03:19:25;1.00;;;1.00;;
18224;SDS011;9237;48.590;8.854;2023-04-06T03:21:52;1.10;;;1.10;;
18224;SDS011;9237;48.590;8.854;2023-04-06T03:24:20;1.00;;;1.00;;
18224;SDS011;9237;48.590;8.854;2023-04-06T03:26:47;1.00;;;1.00;;
18224;SDS011;9237;48.590;8.854;2023-04-06T03:29:14;1.00;;;1.00;;
18224;SDS011;9237;48.590;8.854;2023-04-06T03:31:41;1.30;;;1.30;;
18224;SDS011;9237;48.590;8.854;2023-04-06T03:34:08;1.10;;;1.10;;
18224;SDS011;9237;48.590;8.854;2023-04-06T03:36:35;1.10;;;1.10;;
18224;SDS011;9237;48.590;8.854;2023-04-06T03:39:02;1.00;;;1.00;;
18224;SDS011;9237;48.590;8.854;2023-04-06T03:41:30;1.00;;;1.00;;
18224;SDS011;9237;48.590;8.854;2023-04-06T03:43:57;1.00;;;1.00;;
18224;SDS011;9237;48.590;8.854;2023-04-06T03:46:24;1.00;;;1.00;;
18224;SDS011;9237;48.590;8.854;2023-04-06T03:48:51;1.10;;;1.10;;
18224;SDS011;9237;48.590;8.854;2023-04-06T03:51:18;1.10;;;1.10;;
18224;SDS011;9237;48.590;8.854;2023-04-06T03:53:45;1.10;;;1.10;;
18224;SDS011;9237;48.590;8.854;2023-04-06T03:56:12;1.00;;;1.00;;
18224;SDS011;9237;48.590;8.854;2023-04-06T03:58:41;1.10;;;1.10;;
18224;SDS011;9237;48.590;8.854;2023-04-06T04:01:09;1.00;;;1.00;;
18224;SDS011;9237;48.590;8.854;2023-04-06T04:03:36;1.00;;;1.00;;
18224;SDS011;9237;48.590;8.854;2023-04-06T04:06:03;1.03;;;1.03;;
18224;SDS011;9237;48.590;8.854;2023-04-06T04:08:30;1.27;;;1.27;;
18224;SDS011;9237;48.590;8.854;2023-04-06T04:10:57;1.00;;;1.00;;
18224;SDS011;9237;48.590;8.854;2023-04-06T04:13:24;0.90;;;0.90;;
18224;SDS011;9237;48.590;8.854;2023-04-06T04:15:52;1.00;;;1.00;;
18224;SDS011;9237;48.590;8.854;2023-04-06T04:18:19;1.10;;;1.10;;
18224;SDS011;9237;48.590;8.854;2023-04-06T04:20:46;1.00;;;1.00;;
18224;SDS011;9237;48.590;8.854;2023-04-06T04:23:13;1.10;;;1.10;;
18224;SDS011;9237;48.590;8.854;2023-04-06T04:25:40;1.07;;;1.07;;
18224;SDS011;9237;48.590;8.854;2023-04-06T04:28:09;1.10;;;1.10;;
18224;SDS011;9237;48.590;8.854;2023-04-06T04:30:36;1.00;;;1.00;;
18224;SDS011;9237;48.590;8.854;2023-04-06T04:33:04;1.00;;;1.00;;
18224;SDS011;9237;48.590;8.854;2023-04-06T04:35:31;0.90;;;0.90;;
18224;SDS011;9237;48.590;8.854;2023-04-06T04:37:58;1.10;;;1.10;;
18224;SDS011;9237;48.590;8.854;2023-04-06T04:40:25;1.10;;;1.10;;
18224;SDS011;9237;48.590;8.854;2023-04-06T04:42:52;1.00;;;1.00;;
18224;SDS011;9237;48.590;8.854;2023-04-06T04:45:18;1.00;;;1.00;;
18224;SDS011;9237;48.590;8.854;2023-04-06T04:47:45;1.00;;;1.00;;
18224;SDS011;9237;48.590;8.854;2023-04-06T04:50:14;1.03;;;1.03;;
18224;SDS011;9237;48.590;8.854;2023-04-06T04:52:41;1.00;;;1.00;;
18224;SDS011;9237;48.590;8.854;2023-04-06T04:55:07;1.00;;;1.00;;
18224;SDS011;9237;48.590;8.854;2023-04-06T04:57:34;1.00;;;1.00;;
18224;SDS011;9237;48.590;8.854;2023-04-06T05:00:01;1.00;;;1.00;;
18224;SDS011;9237;48.590;8.854;2023-04-06T05:02:29;1.03;;;1.03;;
18224;SDS011;9237;48.590;8.854;2023-04-06T05:04:56;0.90;;;0.90;;
18224;SDS011;9237;48.590;8.854;2023-04-06T05:07:24;1.10;;;1.10;;
18224;SDS011;9237;48.590;8.854;2023-04-06T05:09:51;0.90;;;0.90;;
18224;SDS011;9237;48.590;8.854;2023-04-06T05:12:18;1.00;;;1.00;;
18224;SDS011;9237;48.590;8.854;2023-04-06T05:14:45;1.00;;;1.00;;
18224;SDS011;9237;48.590;8.854;2023-04-06T05:17:12;1.00;;;1.00;;
18224;SDS011;9237;48.590;8.854;2023-04-06T05:19:39;1.10;;;1.10;;
18224;SDS011;9237;48.590;8.854;2023-04-06T05:22:06;1.00;;;1.00;;
18224;SDS011;9237;48.590;8.854;2023-04-06T05:24:34;1.00;;;1.00;;
18224;SDS011;9237;48.590;8.854;2023-04-06T05:27:01;1.00;;;1.00;;
18224;SDS011;9237;48.590;8.854;2023-04-06T05:29:28;1.00;;;1.00;;
18224;SDS011;9237;48.590;8.854;2023-04-06T05:31:55;1.00;;;1.00;;
18224;SDS011;9237;48.590;8.854;2023-04-06T05:34:22;1.10;;;1.10;;
18224;SDS011;9237;48.590;8.854;2023-04-06T05:36:49;0.90;;;0.90;;
18224;SDS011;9237;48.590;8.854;2023-04-06T05:39:16;1.00;;;1.00;;
18224;SDS011;9237;48.590;8.854;2023-04-06T05:41:45;1.00;;;1.00;;
18224;SDS011;9237;48.590;8.854;2023-04-06T05:44:12;0.90;;;0.90;;
18224;SDS011;9237;48.590;8.854;2023-04-06T05:46:38;1.00;;;1.00;;
18224;SDS011;9237;48.590;8.854;2023-04-06T05:49:06;1.00;;;1.00;;
18224;SDS011;9237;48.590;8.854;2023-04-06T05:51:32;1.00;;;1.00;;
18224;SDS011;9237;48.590;8.854;2023-04-06T05:53:59;1.00;;;1.00;;
18224;SDS011;9237;48.590;8.854;2023-04-06T05:56:26;1.00;;;1.00;;
18224;SDS011;9237;48.590;8.854;2023-04-06T05:58:56;1.00;;;1.00;;
18224;SDS011;9237;48.590;8.854;2023-04-06T06:01:23;0.90;;;0.90;;
18224;SDS011;9237;48.590;8.854;2023-04-06T06:03:50;0.90;;;0.90;;
18224;SDS011;9237;48.590;8.854;2023-04-06T06:06:17;0.90;;;0.90;;
18224;SDS011;9237;48.590;8.854;2023-04-06T06:08:44;0.90;;;0.90;;
18224;SDS011;9237;48.590;8.854;2023-04-06T06:11:11;0.90;;;0.90;;
18224;SDS011;9237;48.590;8.854;2023-04-06T06:13:37;0.90;;;0.90;;
18224;SDS011;9237;48.590;8.854;2023-04-06T06:16:06;0.90;;;0.90;;
18224;SDS011;9237;48.590;8.854;2023-04-06T06:18:33;0.90;;;0.90;;
18224;SDS011;9237;48.590;8.854;2023-04-06T06:21:01;0.80;;;0.80;;
18224;SDS011;9237;48.590;8.854;2023-04-06T06:23:29;0.80;;;0.80;;
18224;SDS011;9237;48.590;8.854;2023-04-06T06:25:55;0.80;;;0.80;;
18224;SDS011;9237;48.590;8.854;2023-04-06T06:28:23;0.90;;;0.90;;
18224;SDS011;9237;48.590;8.854;2023-04-06T06:30:51;0.80;;;0.80;;
18224;SDS011;9237;48.590;8.854;2023-04-06T06:33:19;0.90;;;0.90;;
18224;SDS011;9237;48.590;8.854;2023-04-06T06:35:46;0.80;;;0.80;;
18224;SDS011;9237;48.590;8.854;2023-04-06T06:38:13;0.80;;;0.80;;
18224;SDS011;9237;48.590;8.854;2023-04-06T06:40:40;0.90;;;0.90;;
18224;SDS011;9237;48.590;8.854;2023-04-06T06:43:07;0.90;;;0.90;;
18224;SDS011;9237;48.590;8.854;2023-04-06T06:45:34;0.90;;;0.90;;
18224;SDS011;9237;48.590;8.854;2023-04-06T06:48:01;1.00;;;1.00;;
18224;SDS011;9237;48.590;8.854;2023-04-06T06:50:29;0.70;;;0.70;;
18224;SDS011;9237;48.590;8.854;2023-04-06T06:52:56;0.90;;;0.90;;
18224;SDS011;9237;48.590;8.854;2023-04-06T06:55:23;0.70;;;0.70;;
18224;SDS011;9237;48.590;8.854;2023-04-06T06:57:50;0.80;;;0.80;;
18224;SDS011;9237;48.590;8.854;2023-04-06T07:00:17;0.90;;;0.90;;
18224;SDS011;9237;48.590;8.854;2023-04-06T07:02:45;0.90;;;0.90;;
18224;SDS011;9237;48.590;8.854;2023-04-06T07:05:13;0.83;;;0.83;;
18224;SDS011;9237;48.590;8.854;2023-04-06T07:07:41;0.70;;;0.70;;
18224;SDS011;9237;48.590;8.854;2023-04-06T07:10:08;0.90;;;0.90;;
18224;SDS011;9237;48.590;8.854;2023-04-06T07:12:36;0.83;;;0.83;;
18224;SDS011;9237;48.590;8.854;2023-04-06T07:15:03;0.70;;;0.70;;
18224;SDS011;9237;48.590;8.854;2023-04-06T07:17:30;0.77;;;0.77;;
18224;SDS011;9237;48.590;8.854;2023-04-06T07:19:57;0.70;;;0.70;;
18224;SDS011;9237;48.590;8.854;2023-04-06T07:22:24;0.70;;;0.70;;
18224;SDS011;9237;48.590;8.854;2023-04-06T07:24:53;0.80;;;0.80;;
18224;SDS011;9237;48.590;8.854;2023-04-06T07:27:20;0.80;;;0.80;;
18224;SDS011;9237;48.590;8.854;2023-04-06T07:29:46;0.80;;;0.80;;
18224;SDS011;9237;48.590;8.854;2023-04-06T07:32:13;0.70;;;0.70;;
18224;SDS011;9237;48.590;8.854;2023-04-06T07:34:40;0.70;;;0.70;;
18224;SDS011;9237;48.590;8.854;2023-04-06T07:37:07;0.70;;;0.70;;
18224;SDS011;9237;48.590;8.854;2023-04-06T07:39:34;0.70;;;0.70;;
18224;SDS011;9237;48.590;8.854;2023-04-06T07:42:02;0.80;;;0.80;;
18224;SDS011;9237;48.590;8.854;2023-04-06T07:44:30;0.80;;;0.80;;
18224;SDS011;9237;48.590;8.854;2023-04-06T07:46:56;0.70;;;0.70;;
18224;SDS011;9237;48.590;8.854;2023-04-06T07:49:23;0.70;;;0.70;;
18224;SDS011;9237;48.590;8.854;2023-04-06T07:51:50;0.80;;;0.80;;
18224;SDS011;9237;48.590;8.854;2023-04-06T07:54:17;0.70;;;0.70;;
18224;SDS011;9237;48.590;8.854;2023-04-06T07:56:44;0.80;;;0.80;;
18224;SDS011;9237;48.590;8.854;2023-04-06T07:59:12;0.80;;;0.80;;
18224;SDS011;9237;48.590;8.854;2023-04-06T08:01:39;0.80;;;0.80;;
18224;SDS011;9237;48.590;8.854;2023-04-06T08:04:06;0.70;;;0.70;;
18224;SDS011;9237;48.590;8.854;2023-04-06T08:06:33;0.70;;;0.70;;
18224;SDS011;9237;48.590;8.854;2023-04-06T08:09:01;0.80;;;0.80;;
18224;SDS011;9237;48.590;8.854;2023-04-06T08:11:29;0.60;;;0.60;;
18224;SDS011;9237;48.590;8.854;2023-04-06T08:13:56;0.70;;;0.70;;
18224;SDS011;9237;48.590;8.854;2023-04-06T08:16:24;0.70;;;0.70;;
18224;SDS011;9237;48.590;8.854;2023-04-06T08:18:51;0.80;;;0.80;;
18224;SDS011;9237;48.590;8.854;2023-04-06T08:21:19;0.70;;;0.70;;
18224;SDS011;9237;48.590;8.854;2023-04-06T08:23:45;0.70;;;0.70;;
18224;SDS011;9237;48.590;8.854;2023-04-06T08:26:12;0.77;;;0.77;;
18224;SDS011;9237;48.590;8.854;2023-04-06T08:28:39;0.70;;;0.70;;
18224;SDS011;9237;48.590;8.854;2023-04-06T08:31:07;0.70;;;0.70;;
18224;SDS011;9237;48.590;8.854;2023-04-06T08:33:35;0.60;;;0.60;;
18224;SDS011;9237;48.590;8.854;2023-04-06T08:36:07;0.70;;;0.70;;
18224;SDS011;9237;48.590;8.854;2023-04-06T08:38:35;0.60;;;0.60;;
18224;SDS011;9237;48.590;8.854;2023-04-06T08:41:06;0.60;;;0.60;;
18224;SDS011;9237;48.590;8.854;2023-04-06T08:43:35;0.70;;;0.70;;
18224;SDS011;9237;48.590;8.854;2023-04-06T08:46:07;0.70;;;0.70;;
18224;SDS011;9237;48.590;8.854;2023-04-06T08:48:36;0.70;;;0.70;;
18224;SDS011;9237;48.590;8.854;2023-04-06T08:51:04;0.70;;;0.70;;
18224;SDS011;9237;48.590;8.854;2023-04-06T08:53:31;0.70;;;0.70;;
18224;SDS011;9237;48.590;8.854;2023-04-06T08:55:58;0.70;;;0.70;;
18224;SDS011;9237;48.590;8.854;2023-04-06T08:58:27;0.70;;;0.70;;
18224;SDS011;9237;48.590;8.854;2023-04-06T09:00:57;0.60;;;0.60;;
18224;SDS011;9237;48.590;8.854;2023-04-06T09:03:24;0.60;;;0.60;;
18224;SDS011;9237;48.590;8.854;2023-04-06T09:05:54;0.60;;;0.60;;
18224;SDS011;9237;48.590;8.854;2023-04-06T09:08:21;0.60;;;0.60;;
18224;SDS011;9237;48.590;8.854;2023-04-06T09:10:48;0.60;;;0.60;;
18224;SDS011;9237;48.590;8.854;2023-04-06T09:13:17;0.60;;;0.60;;
18224;SDS011;9237;48.590;8.854;2023-04-06T09:15:43;0.60;;;0.60;;
18224;SDS011;9237;48.590;8.854;2023-04-06T09:18:10;0.60;;;0.60;;
18224;SDS011;9237;48.590;8.854;2023-04-06T09:20:37;0.50;;;0.50;;
18224;SDS011;9237;48.590;8.854;2023-04-06T09:23:05;0.60;;;0.60;;
18224;SDS011;9237;48.590;8.854;2023-04-06T09:25:32;0.60;;;0.60;;
18224;SDS011;9237;48.590;8.854;2023-04-06T09:28:00;0.60;;;0.60;;
18224;SDS011;9237;48.590;8.854;2023-04-06T09:30:27;0.60;;;0.60;;
18224;SDS011;9237;48.590;8.854;2023-04-06T09:32:55;0.70;;;0.70;;
18224;SDS011;9237;48.590;8.854;2023-04-06T09:35:24;0.60;;;0.60;;
18224;SDS011;9237;48.590;8.854;2023-04-06T09:37:52;0.60;;;0.60;;
18224;SDS011;9237;48.590;8.854;2023-04-06T09:40:21;0.60;;;0.60;;
18224;SDS011;9237;48.590;8.854;2023-04-06T09:42:49;0.60;;;0.60;;
18224;SDS011;9237;48.590;8.854;2023-04-06T09:45:19;0.60;;;0.60;;
18224;SDS011;9237;48.590;8.854;2023-04-06T09:47:46;0.50;;;0.50;;
18224;SDS011;9237;48.590;8.854;2023-04-06T09:50:14;0.50;;;0.50;;
18224;SDS011;9237;48.590;8.854;2023-04-06T09:52:42;0.50;;;0.50;;
18224;SDS011;9237;48.590;8.854;2023-04-06T09:55:15;0.60;;;0.60;;
18224;SDS011;9237;48.590;8.854;2023-04-06T09:57:49;0.60;;;0.60;;
18224;SDS011;9237;48.590;8.854;2023-04-06T10:00:20;0.60;;;0.60;;
18224;SDS011;9237;48.590;8.854;2023-04-06T10:02:49;0.60;;;0.60;;
18224;SDS011;9237;48.590;8.854;2023-04-06T10:05:26;0.60;;;0.60;;
18224;SDS011;9237;48.590;8.854;2023-04-06T10:07:57;0.60;;;0.60;;
18224;SDS011;9237;48.590;8.854;2023-04-06T10:10:28;0.60;;;0.60;;
18224;SDS011;9237;48.590;8.854;2023-04-06T10:12:57;0.60;;;0.60;;
18224;SDS011;9237;48.590;8.854;2023-04-06T10:15:25;0.60;;;0.60;;
18224;SDS011;9237;48.590;8.854;2023-04-06T10:17:54;0.57;;;0.57;;
18224;SDS011;9237;48.590;8.854;2023-04-06T10:20:22;0.50;;;0.50;;
18224;SDS011;9237;48.590;8.854;2023-04-06T10:22:55;0.50;;;0.50;;
18224;SDS011;9237;48.590;8.854;2023-04-06T10:25:28;0.50;;;0.50;;
18224;SDS011;9237;48.590;8.854;2023-04-06T10:28:00;0.50;;;0.50;;
18224;SDS011;9237;48.590;8.854;2023-04-06T10:30:28;0.50;;;0.50;;
18224;SDS011;9237;48.590;8.854;2023-04-06T10:32:55;0.60;;;0.60;;
18224;SDS011;9237;48.590;8.854;2023-04-06T10:35:22;0.50;;;0.50;;
18224;SDS011;9237;48.590;8.854;2023-04-06T10:37:51;0.60;;;0.60;;
18224;SDS011;9237;48.590;8.854;2023-04-06T10:40:19;0.57;;;0.57;;
18224;SDS011;9237;48.590;8.854;2023-04-06T10:42:48;0.60;;;0.60;;
18224;SDS011;9237;48.590;8.854;2023-04-06T10:45:23;0.60;;;0.60;;
18224;SDS011;9237;48.590;8.854;2023-04-06T10:47:51;0.60;;;0.60;;
18224;SDS011;9237;48.590;8.854;2023-04-06T10:50:19;0.60;;;0.60;;
18224;SDS011;9237;48.590;8.854;2023-04-06T10:52:47;0.60;;;0.60;;
18224;SDS011;9237;48.590;8.854;2023-04-06T10:55:24;0.60;;;0.60;;
18224;SDS011;9237;48.590;8.854;2023-04-06T10:57:52;0.50;;;0.50;;
18224;SDS011;9237;48.590;8.854;2023-04-06T11:00:19;0.50;;;0.50;;
18224;SDS011;9237;48.590;8.854;2023-04-06T11:02:48;0.50;;;0.50;;
18224;SDS011;9237;48.590;8.854;2023-04-06T11:05:15;0.55;;;0.55;;
18224;SDS011;9237;48.590;8.854;2023-04-06T11:07:42;0.50;;;0.50;;
18224;SDS011;9237;48.590;8.854;2023-04-06T11:10:10;0.50;;;0.50;;
18224;SDS011;9237;48.590;8.854;2023-04-06T11:12:37;0.50;;;0.50;;
18224;SDS011;9237;48.590;8.854;2023-04-06T11:15:05;0.50;;;0.50;;
18224;SDS011;9237;48.590;8.854;2023-04-06T11:17:35;0.50;;;0.50;;
18224;SDS011;9237;48.590;8.854;2023-04-06T11:20:09;0.50;;;0.50;;
18224;SDS011;9237;48.590;8.854;2023-04-06T11:22:47;0.50;;;0.50;;
18224;SDS011;9237;48.590;8.854;2023-04-06T11:25:14;0.50;;;0.50;;
18224;SDS011;9237;48.590;8.854;2023-04-06T11:27:42;0.50;;;0.50;;
18224;SDS011;9237;48.590;8.854;2023-04-06T11:30:10;0.50;;;0.50;;
18224;SDS011;9237;48.590;8.854;2023-04-06T11:32:39;0.50;;;0.50;;
18224;SDS011;9237;48.590;8.854;2023-04-06T11:35:09;0.57;;;0.57;;
18224;SDS011;9237;48.590;8.854;2023-04-06T11:37:37;0.50;;;0.50;;
18224;SDS011;9237;48.590;8.854;2023-04-06T11:40:07;0.50;;;0.50;;
18224;SDS011;9237;48.590;8.854;2023-04-06T11:42:35;0.50;;;0.50;;
18224;SDS011;9237;48.590;8.854;2023-04-06T11:45:02;0.50;;;0.50;;
18224;SDS011;9237;48.590;8.854;2023-04-06T11:47:30;0.60;;;0.60;;
18224;SDS011;9237;48.590;8.854;2023-04-06T11:50:05;0.50;;;0.50;;
18224;SDS011;9237;48.590;8.854;2023-04-06T11:52:34;0.60;;;0.60;;
18224;SDS011;9237;48.590;8.854;2023-04-06T11:55:09;0.55;;;0.55;;
18224;SDS011;9237;48.590;8.854;2023-04-06T11:57:38;0.50;;;0.50;;
18224;SDS011;9237;48.590;8.854;2023-04-06T12:00:05;0.60;;;0.60;;
18224;SDS011;9237;48.590;8.854;2023-04-06T12:02:33;0.50;;;0.50;;
18224;SDS011;9237;48.590;8.854;2023-04-06T12:05:01;0.60;;;0.60;;
18224;SDS011;9237;48.590;8.854;2023-04-06T12:07:28;0.60;;;0.60;;
18224;SDS011;9237;48.590;8.854;2023-04-06T12:09:56;0.60;;;0.60;;
18224;SDS011;9237;48.590;8.854;2023-04-06T12:12:24;0.60;;;0.60;;
18224;SDS011;9237;48.590;8.854;2023-04-06T12:14:51;0.50;;;0.50;;
18224;SDS011;9237;48.590;8.854;2023-04-06T12:17:18;0.60;;;0.60;;
18224;SDS011;9237;48.590;8.854;2023-04-06T12:19:45;0.63;;;0.63;;
18224;SDS011;9237;48.590;8.854;2023-04-06T12:22:12;0.60;;;0.60;;
18224;SDS011;9237;48.590;8.854;2023-04-06T12:24:39;0.60;;;0.60;;
18224;SDS011;9237;48.590;8.854;2023-04-06T12:27:08;0.60;;;0.60;;
18224;SDS011;9237;48.590;8.854;2023-04-06T12:29:36;0.60;;;0.60;;
18224;SDS011;9237;48.590;8.854;2023-04-06T12:32:03;0.50;;;0.50;;
18224;SDS011;9237;48.590;8.854;2023-04-06T12:34:30;0.50;;;0.50;;
18224;SDS011;9237;48.590;8.854;2023-04-06T12:36:57;0.50;;;0.50;;
18224;SDS011;9237;48.590;8.854;2023-04-06T12:39:24;0.50;;;0.50;;
18224;SDS011;9237;48.590;8.854;2023-04-06T12:41:52;0.50;;;0.50;;
18224;SDS011;9237;48.590;8.854;2023-04-06T12:44:20;0.55;;;0.55;;
18224;SDS011;9237;48.590;8.854;2023-04-06T12:46:47;0.50;;;0.50;;
18224;SDS011;9237;48.590;8.854;2023-04-06T12:49:15;0.60;;;0.60;;
18224;SDS011;9237;48.590;8.854;2023-04-06T12:51:44;0.50;;;0.50;;
18224;SDS011;9237;48.590;8.854;2023-04-06T12:54:11;0.50;;;0.50;;
18224;SDS011;9237;48.590;8.854;2023-04-06T12:56:38;0.60;;;0.60;;
18224;SDS011;9237;48.590;8.854;2023-04-06T12:59:05;0.50;;;0.50;;
18224;SDS011;9237;48.590;8.854;2023-04-06T13:01:33;0.60;;;0.60;;
18224;SDS011;9237;48.590;8.854;2023-04-06T13:04:00;0.60;;;0.60;;
18224;SDS011;9237;48.590;8.854;2023-04-06T13:06:27;0.60;;;0.60;;
18224;SDS011;9237;48.590;8.854;2023-04-06T13:08:55;0.60;;;0.60;;
18224;SDS011;9237;48.590;8.854;2023-04-06T13:11:22;0.60;;;0.60;;
18224;SDS011;9237;48.590;8.854;2023-04-06T13:13:49;0.60;;;0.60;;
18224;SDS011;9237;48.590;8.854;2023-04-06T13:16:16;0.60;;;0.60;;
18224;SDS011;9237;48.590;8.854;2023-04-06T13:18:45;0.60;;;0.60;;
18224;SDS011;9237;48.590;8.854;2023-04-06T13:21:13;0.70;;;0.70;;
18224;SDS011;9237;48.590;8.854;2023-04-06T13:23:41;0.70;;;0.70;;
18224;SDS011;9237;48.590;8.854;2023-04-06T13:26:09;0.70;;;0.70;;
18224;SDS011;9237;48.590;8.854;2023-04-06T13:28:36;0.70;;;0.70;;
18224;SDS011;9237;48.590;8.854;2023-04-06T13:31:04;0.70;;;0.70;;
18224;SDS011;9237;48.590;8.854;2023-04-06T13:33:31;0.70;;;0.70;;
18224;SDS011;9237;48.590;8.854;2023-04-06T13:36:00;0.70;;;0.70;;
18224;SDS011;9237;48.590;8.854;2023-04-06T13:38:27;0.70;;;0.70;;
18224;SDS011;9237;48.590;8.854;2023-04-06T13:40:55;0.70;;;0.70;;
18224;SDS011;9237;48.590;8.854;2023-04-06T13:43:22;0.70;;;0.70;;
18224;SDS011;9237;48.590;8.854;2023-04-06T13:45:51;0.70;;;0.70;;
18224;SDS011;9237;48.590;8.854;2023-04-06T13:48:19;0.70;;;0.70;;
18224;SDS011;9237;48.590;8.854;2023-04-06T13:50:46;0.70;;;0.70;;
18224;SDS011;9237;48.590;8.854;2023-04-06T13:53:15;0.70;;;0.70;;
18224;SDS011;9237;48.590;8.854;2023-04-06T13:55:41;0.70;;;0.70;;
18224;SDS011;9237;48.590;8.854;2023-04-06T13:58:08;0.70;;;0.70;;
18224;SDS011;9237;48.590;8.854;2023-04-06T14:00:35;0.60;;;0.60;;
18224;SDS011;9237;48.590;8.854;2023-04-06T14:03:03;0.60;;;0.60;;
18224;SDS011;9237;48.590;8.854;2023-04-06T14:05:30;0.60;;;0.60;;
18224;SDS011;9237;48.590;8.854;2023-04-06T14:07:57;0.60;;;0.60;;
18224;SDS011;9237;48.590;8.854;2023-04-06T14:10:26;0.60;;;0.60;;
18224;SDS011;9237;48.590;8.854;2023-04-06T14:12:52;0.70;;;0.70;;
18224;SDS011;9237;48.590;8.854;2023-04-06T14:15:19;0.70;;;0.70;;
18224;SDS011;9237;48.590;8.854;2023-04-06T14:17:46;0.70;;;0.70;;
18224;SDS011;9237;48.590;8.854;2023-04-06T14:20:13;0.70;;;0.70;;
18224;SDS011;9237;48.590;8.854;2023-04-06T14:22:40;0.67;;;0.67;;
18224;SDS011;9237;48.590;8.854;2023-04-06T14:25:08;0.70;;;0.70;;
18224;SDS011;9237;48.590;8.854;2023-04-06T14:27:37;0.70;;;0.70;;
18224;SDS011;9237;48.590;8.854;2023-04-06T14:30:04;0.70;;;0.70;;
18224;SDS011;9237;48.590;8.854;2023-04-06T14:32:32;0.70;;;0.70;;
18224;SDS011;9237;48.590;8.854;2023-04-06T14:34:59;0.70;;;0.70;;
18224;SDS011;9237;48.590;8.854;2023-04-06T14:37:26;0.70;;;0.70;;
18224;SDS011;9237;48.590;8.854;2023-04-06T14:39:52;0.70;;;0.70;;
18224;SDS011;9237;48.590;8.854;2023-04-06T14:42:19;0.70;;;0.70;;
18224;SDS011;9237;48.590;8.854;2023-04-06T14:44:47;0.70;;;0.70;;
18224;SDS011;9237;48.590;8.854;2023-04-06T14:47:15;0.73;;;0.73;;
18224;SDS011;9237;48.590;8.854;2023-04-06T14:49:45;0.87;;;0.87;;
18224;SDS011;9237;48.590;8.854;2023-04-06T14:52:12;0.80;;;0.80;;
18224;SDS011;9237;48.590;8.854;2023-04-06T14:54:38;0.70;;;0.70;;
18224;SDS011;9237;48.590;8.854;2023-04-06T14:57:05;0.70;;;0.70;;
18224;SDS011;9237;48.590;8.854;2023-04-06T14:59:32;0.70;;;0.70;;
18224;SDS011;9237;48.590;8.854;2023-04-06T15:02:00;0.70;;;0.70;;